sensor_id;sensor_type;location;lat;lon;timestamp;P1;durP1;ratioP1;P2;durP2;ratioP2
56271;SDS011;42177;48.914;18.160;2024-03-02T00:00:36;13.4;;;10.5;;
56271;SDS011;42177;48.914;18.160;2024-03-02T00:05:36;13.4;;;10.5;;
56271;SDS011;42177;48.914;18.160;2024-03-02T00:10:36;12.9;;;11;;
56271;SDS011;42177;48.914;18.160;2024-03-02T00:15:40;12.9;;;11;;
56271;SDS011;42177;48.914;18.160;2024-03-02T00:20:36;13.7;;;10.6;;
56271;SDS011;42177;48.914;18.160;2024-03-02T00:25:37;13.7;;;10.6;;
56271;SDS011;42177;48.914;18.160;2024-03-02T00:30:42;11.2;;;9.5;;
56271;SDS011;42177;48.914;18.160;2024-03-02T00:35:36;11.2;;;9.5;;
56271;SDS011;42177;48.914;18.160;2024-03-02T00:40:36;14.9;;;10.7;;
56271;SDS011;42177;48.914;18.160;2024-03-02T00:45:36;14.9;;;10.7;;
56271;SDS011;42177;48.914;18.160;2024-03-02T00:50:36;14.1;;;10.4;;
56271;SDS011;42177;48.914;18.160;2024-03-02T00:55:36;14.1;;;10.4;;
56271;SDS011;42177;48.914;18.160;2024-03-02T01:00:36;13.9;;;9.7;;
56271;SDS011;42177;48.914;18.160;2024-03-02T01:05:36;13.9;;;9.7;;
56271;SDS011;42177;48.914;18.160;2024-03-02T01:10:36;12.6;;;10.5;;
56271;SDS011;42177;48.914;18.160;2024-03-02T01:15:36;12.6;;;10.5;;
56271;SDS011;42177;48.914;18.160;2024-03-02T01:20:36;15.5;;;10.8;;
56271;SDS011;42177;48.914;18.160;2024-03-02T01:25:36;15.5;;;10.8;;
56271;SDS011;42177;48.914;18.160;2024-03-02T01:30:36;14.5;;;10.7;;
56271;SDS011;42177;48.914;18.160;2024-03-02T01:35:36;14.5;;;10.7;;
56271;SDS011;42177;48.914;18.160;2024-03-02T01:40:36;15.8;;;11.3;;
56271;SDS011;42177;48.914;18.160;2024-03-02T01:45:36;15.8;;;11.3;;
56271;SDS011;42177;48.914;18.160;2024-03-02T01:50:36;14.9;;;12.4;;
56271;SDS011;42177;48.914;18.160;2024-03-02T01:55:36;14.9;;;12.4;;
56271;SDS011;42177;48.914;18.160;2024-03-02T02:00:36;17;;;14.9;;
56271;SDS011;42177;48.914;18.160;2024-03-02T02:05:36;17;;;14.9;;
56271;SDS011;42177;48.914;18.160;2024-03-02T02:10:36;15.4;;;12.9;;
56271;SDS011;42177;48.914;18.160;2024-03-02T02:15:36;15.4;;;12.9;;
56271;SDS011;42177;48.914;18.160;2024-03-02T02:20:36;17.2;;;13.4;;
56271;SDS011;42177;48.914;18.160;2024-03-02T02:25:36;17.2;;;13.4;;
56271;SDS011;42177;48.914;18.160;2024-03-02T02:30:36;14.1;;;11.6;;
56271;SDS011;42177;48.914;18.160;2024-03-02T02:35:36;14.1;;;11.6;;
56271;SDS011;42177;48.914;18.160;2024-03-02T02:40:36;16.7;;;11.2;;
56271;SDS011;42177;48.914;18.160;2024-03-02T02:45:36;16.7;;;11.2;;
56271;SDS011;42177;48.914;18.160;2024-03-02T02:50:36;15.5;;;11.6;;
56271;SDS011;42177;48.914;18.160;2024-03-02T02:55:36;15.5;;;11.6;;
56271;SDS011;42177;48.914;18.160;2024-03-02T03:00:36;13.6;;;10.9;;
56271;SDS011;42177;48.914;18.160;2024-03-02T03:05:36;13.6;;;10.9;;
56271;SDS011;42177;48.914;18.160;2024-03-02T03:10:36;14.1;;;10.9;;
56271;SDS011;42177;48.914;18.160;2024-03-02T03:15:36;14.1;;;10.9;;
56271;SDS011;42177;48.914;18.160;2024-03-02T03:20:36;14.4;;;11.1;;
56271;SDS011;42177;48.914;18.160;2024-03-02T03:25:36;14.4;;;11.1;;
56271;SDS011;42177;48.914;18.160;2024-03-02T03:30:36;15.2;;;11;;
56271;SDS011;42177;48.914;18.160;2024-03-02T03:35:36;15.2;;;11;;
56271;SDS011;42177;48.914;18.160;2024-03-02T03:40:36;13.5;;;11.3;;
56271;SDS011;42177;48.914;18.160;2024-03-02T03:45:36;13.5;;;11.3;;
56271;SDS011;42177;48.914;18.160;2024-03-02T03:50:36;15.6;;;10.7;;
56271;SDS011;42177;48.914;18.160;2024-03-02T03:55:36;15.6;;;10.7;;
56271;SDS011;42177;48.914;18.160;2024-03-02T04:00:36;16.2;;;11.1;;
56271;SDS011;42177;48.914;18.160;2024-03-02T04:05:36;16.2;;;11.1;;
56271;SDS011;42177;48.914;18.160;2024-03-02T04:10:36;14.4;;;10.7;;
56271;SDS011;42177;48.914;18.160;2024-03-02T04:15:36;14.4;;;10.7;;
56271;SDS011;42177;48.914;18.160;2024-03-02T04:20:36;13.8;;;10.7;;
56271;SDS011;42177;48.914;18.160;2024-03-02T04:25:36;13.8;;;10.7;;
56271;SDS011;42177;48.914;18.160;2024-03-02T04:30:36;14;;;10.2;;
56271;SDS011;42177;48.914;18.160;2024-03-02T04:35:36;14;;;10.2;;
56271;SDS011;42177;48.914;18.160;2024-03-02T04:40:36;13.5;;;9.8;;
56271;SDS011;42177;48.914;18.160;2024-03-02T04:45:37;13.5;;;9.8;;
56271;SDS011;42177;48.914;18.160;2024-03-02T04:50:36;12.9;;;10.5;;
56271;SDS011;42177;48.914;18.160;2024-03-02T04:55:36;12.9;;;10.5;;
56271;SDS011;42177;48.914;18.160;2024-03-02T05:00:36;12.9;;;10.5;;
56271;SDS011;42177;48.914;18.160;2024-03-02T05:05:36;12.9;;;10.5;;
56271;SDS011;42177;48.914;18.160;2024-03-02T05:10:36;14.5;;;10.9;;
56271;SDS011;42177;48.914;18.160;2024-03-02T05:15:36;14.5;;;10.9;;
56271;SDS011;42177;48.914;18.160;2024-03-02T05:20:36;17.6;;;11.4;;
56271;SDS011;42177;48.914;18.160;2024-03-02T05:25:36;17.6;;;11.4;;
56271;SDS011;42177;48.914;18.160;2024-03-02T05:30:36;15.7;;;11.3;;
56271;SDS011;42177;48.914;18.160;2024-03-02T05:35:36;15.7;;;11.3;;
56271;SDS011;42177;48.914;18.160;2024-03-02T05:40:36;16.6;;;10.6;;
56271;SDS011;42177;48.914;18.160;2024-03-02T05:45:36;16.6;;;10.6;;
56271;SDS011;42177;48.914;18.160;2024-03-02T05:50:36;15.9;;;11.1;;
56271;SDS011;42177;48.914;18.160;2024-03-02T05:55:36;15.9;;;11.1;;
56271;SDS011;42177;48.914;18.160;2024-03-02T06:00:36;14.1;;;10.2;;
56271;SDS011;42177;48.914;18.160;2024-03-02T06:05:36;14.1;;;10.2;;
56271;SDS011;42177;48.914;18.160;2024-03-02T06:10:36;12.1;;;9.7;;
56271;SDS011;42177;48.914;18.160;2024-03-02T06:15:36;12.1;;;9.7;;
56271;SDS011;42177;48.914;18.160;2024-03-02T06:20:36;13;;;9.4;;
56271;SDS011;42177;48.914;18.160;2024-03-02T06:25:36;13;;;9.4;;
56271;SDS011;42177;48.914;18.160;2024-03-02T06:30:36;12.2;;;10;;
56271;SDS011;42177;48.914;18.160;2024-03-02T06:35:36;12.2;;;10;;
56271;SDS011;42177;48.914;18.160;2024-03-02T06:40:36;12.5;;;9.2;;
56271;SDS011;42177;48.914;18.160;2024-03-02T06:45:36;12.5;;;9.2;;
56271;SDS011;42177;48.914;18.160;2024-03-02T06:50:36;12.6;;;10.5;;
56271;SDS011;42177;48.914;18.160;2024-03-02T06:55:36;12.6;;;10.5;;
56271;SDS011;42177;48.914;18.160;2024-03-02T07:00:36;15.1;;;11.3;;
56271;SDS011;42177;48.914;18.160;2024-03-02T07:05:36;15.1;;;11.3;;
56271;SDS011;42177;48.914;18.160;2024-03-02T07:20:46;14.2;;;10.4;;
56271;SDS011;42177;48.914;18.160;2024-03-02T07:25:46;14.2;;;10.4;;
56271;SDS011;42177;48.914;18.160;2024-03-02T07:30:46;13.8;;;10.8;;
56271;SDS011;42177;48.914;18.160;2024-03-02T07:35:46;13.8;;;10.8;;
56271;SDS011;42177;48.914;18.160;2024-03-02T07:40:46;14;;;11.2;;
56271;SDS011;42177;48.914;18.160;2024-03-02T07:45:46;14;;;11.2;;
56271;SDS011;42177;48.914;18.160;2024-03-02T07:50:46;11.2;;;9.2;;
56271;SDS011;42177;48.914;18.160;2024-03-02T07:55:46;11.2;;;9.2;;
56271;SDS011;42177;48.914;18.160;2024-03-02T08:00:46;13.7;;;9.8;;
56271;SDS011;42177;48.914;18.160;2024-03-02T08:10:57;16.6;;;10.6;;
56271;SDS011;42177;48.914;18.160;2024-03-02T08:15:57;16.6;;;10.6;;
56271;SDS011;42177;48.914;18.160;2024-03-02T08:20:57;17.4;;;11.9;;
56271;SDS011;42177;48.914;18.160;2024-03-02T08:25:57;17.4;;;11.9;;
56271;SDS011;42177;48.914;18.160;2024-03-02T08:30:57;16.3;;;11.5;;
56271;SDS011;42177;48.914;18.160;2024-03-02T08:35:57;16.3;;;11.5;;
56271;SDS011;42177;48.914;18.160;2024-03-02T08:40:57;13.8;;;11.3;;
56271;SDS011;42177;48.914;18.160;2024-03-02T08:45:57;13.8;;;11.3;;
56271;SDS011;42177;48.914;18.160;2024-03-02T08:50:57;15.2;;;12.5;;
56271;SDS011;42177;48.914;18.160;2024-03-02T08:55:57;15.2;;;12.5;;
56271;SDS011;42177;48.914;18.160;2024-03-02T09:00:57;14.4;;;11.6;;
56271;SDS011;42177;48.914;18.160;2024-03-02T09:05:57;14.4;;;11.6;;
56271;SDS011;42177;48.914;18.160;2024-03-02T09:10:57;15.2;;;12.2;;
56271;SDS011;42177;48.914;18.160;2024-03-02T09:15:57;15.2;;;12.2;;
56271;SDS011;42177;48.914;18.160;2024-03-02T09:20:57;15.6;;;12.6;;
56271;SDS011;42177;48.914;18.160;2024-03-02T09:25:57;15.6;;;12.6;;
56271;SDS011;42177;48.914;18.160;2024-03-02T09:30:57;15.8;;;12;;
56271;SDS011;42177;48.914;18.160;2024-03-02T09:35:57;15.8;;;12;;
56271;SDS011;42177;48.914;18.160;2024-03-02T09:40:57;15.4;;;12.1;;
56271;SDS011;42177;48.914;18.160;2024-03-02T09:45:57;15.4;;;12.1;;
56271;SDS011;42177;48.914;18.160;2024-03-02T09:50:57;15.4;;;11.8;;
56271;SDS011;42177;48.914;18.160;2024-03-02T09:55:57;15.4;;;11.8;;
56271;SDS011;42177;48.914;18.160;2024-03-02T10:00:57;13.7;;;11.4;;
56271;SDS011;42177;48.914;18.160;2024-03-02T10:06:09;13.7;;;11.4;;
56271;SDS011;42177;48.914;18.160;2024-03-02T10:10:57;14.3;;;11.7;;
56271;SDS011;42177;48.914;18.160;2024-03-02T10:15:57;14.3;;;11.7;;
56271;SDS011;42177;48.914;18.160;2024-03-02T10:20:59;13.8;;;12;;
56271;SDS011;42177;48.914;18.160;2024-03-02T10:25:57;13.8;;;12;;
56271;SDS011;42177;48.914;18.160;2024-03-02T10:30:57;13.2;;;10.6;;
56271;SDS011;42177;48.914;18.160;2024-03-02T10:35:57;13.2;;;10.6;;
56271;SDS011;42177;48.914;18.160;2024-03-02T10:40:57;49.7;;;42.5;;
56271;SDS011;42177;48.914;18.160;2024-03-02T10:45:57;49.7;;;42.5;;
56271;SDS011;42177;48.914;18.160;2024-03-02T10:50:57;12.4;;;9.7;;
56271;SDS011;42177;48.914;18.160;2024-03-02T10:55:57;12.4;;;9.7;;
56271;SDS011;42177;48.914;18.160;2024-03-02T11:00:57;11.2;;;8.4;;
56271;SDS011;42177;48.914;18.160;2024-03-02T11:05:57;11.2;;;8.4;;
56271;SDS011;42177;48.914;18.160;2024-03-02T11:10:57;17.2;;;12.7;;
56271;SDS011;42177;48.914;18.160;2024-03-02T11:15:59;17.2;;;12.7;;
56271;SDS011;42177;48.914;18.160;2024-03-02T11:20:57;17.6;;;13.1;;
56271;SDS011;42177;48.914;18.160;2024-03-02T11:26:05;17.6;;;13.1;;
56271;SDS011;42177;48.914;18.160;2024-03-02T11:30:57;22.5;;;14.2;;
56271;SDS011;42177;48.914;18.160;2024-03-02T11:35:57;22.5;;;14.2;;
56271;SDS011;42177;48.914;18.160;2024-03-02T11:40:57;21.8;;;14.7;;
56271;SDS011;42177;48.914;18.160;2024-03-02T11:45:57;21.8;;;14.7;;
56271;SDS011;42177;48.914;18.160;2024-03-02T11:50:57;21.7;;;14.4;;
56271;SDS011;42177;48.914;18.160;2024-03-02T11:55:57;21.7;;;14.4;;
56271;SDS011;42177;48.914;18.160;2024-03-02T12:00:57;17.7;;;14;;
56271;SDS011;42177;48.914;18.160;2024-03-02T12:05:57;17.7;;;14;;
56271;SDS011;42177;48.914;18.160;2024-03-02T12:10:57;18.2;;;14.5;;
56271;SDS011;42177;48.914;18.160;2024-03-02T12:15:57;18.2;;;14.5;;
56271;SDS011;42177;48.914;18.160;2024-03-02T12:20:58;18.3;;;13.7;;
56271;SDS011;42177;48.914;18.160;2024-03-02T12:25:58;18.3;;;13.7;;
56271;SDS011;42177;48.914;18.160;2024-03-02T12:30:57;16;;;14;;
56271;SDS011;42177;48.914;18.160;2024-03-02T12:35:57;16;;;14;;
56271;SDS011;42177;48.914;18.160;2024-03-02T12:40:57;17.9;;;15.4;;
56271;SDS011;42177;48.914;18.160;2024-03-02T12:45:57;17.9;;;15.4;;
56271;SDS011;42177;48.914;18.160;2024-03-02T12:50:57;17.7;;;15.7;;
56271;SDS011;42177;48.914;18.160;2024-03-02T12:55:57;17.7;;;15.7;;
56271;SDS011;42177;48.914;18.160;2024-03-02T13:01:05;18.8;;;16.7;;
56271;SDS011;42177;48.914;18.160;2024-03-02T13:05:57;18.8;;;16.7;;
56271;SDS011;42177;48.914;18.160;2024-03-02T13:10:57;17.8;;;15.9;;
56271;SDS011;42177;48.914;18.160;2024-03-02T13:15:57;17.8;;;15.9;;
56271;SDS011;42177;48.914;18.160;2024-03-02T13:20:57;19.6;;;15.9;;
56271;SDS011;42177;48.914;18.160;2024-03-02T13:25:57;19.6;;;15.9;;
56271;SDS011;42177;48.914;18.160;2024-03-02T13:30:57;19;;;16.2;;
56271;SDS011;42177;48.914;18.160;2024-03-02T13:35:57;19;;;16.2;;
56271;SDS011;42177;48.914;18.160;2024-03-02T13:40:57;18;;;15.9;;
56271;SDS011;42177;48.914;18.160;2024-03-02T13:45:57;18;;;15.9;;
56271;SDS011;42177;48.914;18.160;2024-03-02T13:50:57;20.5;;;17.1;;
56271;SDS011;42177;48.914;18.160;2024-03-02T13:55:57;20.5;;;17.1;;
56271;SDS011;42177;48.914;18.160;2024-03-02T14:00:57;20;;;17.9;;
56271;SDS011;42177;48.914;18.160;2024-03-02T14:05:57;20;;;17.9;;
56271;SDS011;42177;48.914;18.160;2024-03-02T14:10:57;20.3;;;17.5;;
56271;SDS011;42177;48.914;18.160;2024-03-02T14:15:57;20.3;;;17.5;;
56271;SDS011;42177;48.914;18.160;2024-03-02T14:20:57;17.4;;;15.7;;
56271;SDS011;42177;48.914;18.160;2024-03-02T14:25:57;17.4;;;15.7;;
56271;SDS011;42177;48.914;18.160;2024-03-02T14:30:57;17.2;;;15.1;;
56271;SDS011;42177;48.914;18.160;2024-03-02T14:35:57;17.2;;;15.1;;
56271;SDS011;42177;48.914;18.160;2024-03-02T14:40:57;18.1;;;16.3;;
56271;SDS011;42177;48.914;18.160;2024-03-02T14:45:57;18.1;;;16.3;;
56271;SDS011;42177;48.914;18.160;2024-03-02T14:50:57;18.7;;;16;;
56271;SDS011;42177;48.914;18.160;2024-03-02T14:55:57;18.7;;;16;;
56271;SDS011;42177;48.914;18.160;2024-03-02T15:00:57;16.8;;;15;;
56271;SDS011;42177;48.914;18.160;2024-03-02T15:05:57;16.8;;;15;;
56271;SDS011;42177;48.914;18.160;2024-03-02T15:10:57;21.5;;;18.6;;
56271;SDS011;42177;48.914;18.160;2024-03-02T15:15:57;21.5;;;18.6;;
56271;SDS011;42177;48.914;18.160;2024-03-02T15:20:57;22;;;18.7;;
56271;SDS011;42177;48.914;18.160;2024-03-02T15:25:57;22;;;18.7;;
56271;SDS011;42177;48.914;18.160;2024-03-02T15:30:57;21.9;;;17.6;;
56271;SDS011;42177;48.914;18.160;2024-03-02T15:35:57;21.9;;;17.6;;
56271;SDS011;42177;48.914;18.160;2024-03-02T15:40:57;20.4;;;17.4;;
56271;SDS011;42177;48.914;18.160;2024-03-02T15:45:57;20.4;;;17.4;;
56271;SDS011;42177;48.914;18.160;2024-03-02T15:50:57;18.9;;;16.9;;
56271;SDS011;42177;48.914;18.160;2024-03-02T15:55:57;18.9;;;16.9;;
56271;SDS011;42177;48.914;18.160;2024-03-02T16:00:57;20.8;;;18.1;;
56271;SDS011;42177;48.914;18.160;2024-03-02T16:05:57;20.8;;;18.1;;
56271;SDS011;42177;48.914;18.160;2024-03-02T16:10:57;28.3;;;25.3;;
56271;SDS011;42177;48.914;18.160;2024-03-02T16:15:57;28.3;;;25.3;;
56271;SDS011;42177;48.914;18.160;2024-03-02T16:20:57;17.1;;;15.3;;
56271;SDS011;42177;48.914;18.160;2024-03-02T16:25:57;17.1;;;15.3;;
56271;SDS011;42177;48.914;18.160;2024-03-02T16:30:57;12;;;10.8;;
56271;SDS011;42177;48.914;18.160;2024-03-02T16:35:57;12;;;10.8;;
56271;SDS011;42177;48.914;18.160;2024-03-02T16:40:57;9.4;;;7.7;;
56271;SDS011;42177;48.914;18.160;2024-03-02T16:45:57;9.4;;;7.7;;
56271;SDS011;42177;48.914;18.160;2024-03-02T16:50:57;10.5;;;8.1;;
56271;SDS011;42177;48.914;18.160;2024-03-02T16:55:58;10.5;;;8.1;;
56271;SDS011;42177;48.914;18.160;2024-03-02T17:00:57;9.4;;;7.8;;
56271;SDS011;42177;48.914;18.160;2024-03-02T17:05:57;9.4;;;7.8;;
56271;SDS011;42177;48.914;18.160;2024-03-02T17:10:57;11;;;9.7;;
56271;SDS011;42177;48.914;18.160;2024-03-02T17:15:57;11;;;9.7;;
56271;SDS011;42177;48.914;18.160;2024-03-02T17:20:57;9.3;;;7.4;;
56271;SDS011;42177;48.914;18.160;2024-03-02T17:25:57;9.3;;;7.4;;
56271;SDS011;42177;48.914;18.160;2024-03-02T17:30:57;10.2;;;7.7;;
56271;SDS011;42177;48.914;18.160;2024-03-02T17:35:57;10.2;;;7.7;;
56271;SDS011;42177;48.914;18.160;2024-03-02T17:40:57;9.9;;;8.3;;
56271;SDS011;42177;48.914;18.160;2024-03-02T17:45:57;9.9;;;8.3;;
56271;SDS011;42177;48.914;18.160;2024-03-02T17:50:57;9.6;;;8;;
56271;SDS011;42177;48.914;18.160;2024-03-02T17:55:57;9.6;;;8;;
56271;SDS011;42177;48.914;18.160;2024-03-02T18:00:57;10.3;;;9.3;;
56271;SDS011;42177;48.914;18.160;2024-03-02T18:05:57;10.3;;;9.3;;
56271;SDS011;42177;48.914;18.160;2024-03-02T18:10:57;9.5;;;8.5;;
56271;SDS011;42177;48.914;18.160;2024-03-02T18:15:57;9.5;;;8.5;;
56271;SDS011;42177;48.914;18.160;2024-03-02T18:20:57;8.1;;;7.3;;
56271;SDS011;42177;48.914;18.160;2024-03-02T18:25:57;8.1;;;7.3;;
56271;SDS011;42177;48.914;18.160;2024-03-02T18:30:57;8.8;;;7.9;;
56271;SDS011;42177;48.914;18.160;2024-03-02T18:35:57;8.8;;;7.9;;
56271;SDS011;42177;48.914;18.160;2024-03-02T18:40:57;6.9;;;6.2;;
56271;SDS011;42177;48.914;18.160;2024-03-02T18:45:57;6.9;;;6.2;;
56271;SDS011;42177;48.914;18.160;2024-03-02T18:50:57;5.7;;;5.2;;
56271;SDS011;42177;48.914;18.160;2024-03-02T18:55:57;5.7;;;5.2;;
56271;SDS011;42177;48.914;18.160;2024-03-02T19:00:57;5.4;;;4.9;;
56271;SDS011;42177;48.914;18.160;2024-03-02T19:05:57;5.4;;;4.9;;
56271;SDS011;42177;48.914;18.160;2024-03-02T19:10:57;6;;;5.4;;
56271;SDS011;42177;48.914;18.160;2024-03-02T19:15:57;6;;;5.4;;
56271;SDS011;42177;48.914;18.160;2024-03-02T19:20:57;7.7;;;6.9;;
56271;SDS011;42177;48.914;18.160;2024-03-02T19:25:57;7.7;;;6.9;;
56271;SDS011;42177;48.914;18.160;2024-03-02T19:30:57;9.4;;;8.5;;
56271;SDS011;42177;48.914;18.160;2024-03-02T19:35:57;9.4;;;8.5;;
56271;SDS011;42177;48.914;18.160;2024-03-02T19:40:57;10;;;8.9;;
56271;SDS011;42177;48.914;18.160;2024-03-02T19:45:57;10;;;8.9;;
56271;SDS011;42177;48.914;18.160;2024-03-02T19:50:57;9.5;;;8.6;;
56271;SDS011;42177;48.914;18.160;2024-03-02T19:55:57;9.5;;;8.6;;
56271;SDS011;42177;48.914;18.160;2024-03-02T20:00:57;10.3;;;9.3;;
56271;SDS011;42177;48.914;18.160;2024-03-02T20:05:57;10.3;;;9.3;;
56271;SDS011;42177;48.914;18.160;2024-03-02T20:10:57;11.1;;;10;;
56271;SDS011;42177;48.914;18.160;2024-03-02T20:15:57;11.1;;;10;;
56271;SDS011;42177;48.914;18.160;2024-03-02T20:20:57;11;;;9.6;;
56271;SDS011;42177;48.914;18.160;2024-03-02T20:25:57;11;;;9.6;;
56271;SDS011;42177;48.914;18.160;2024-03-02T20:30:57;13.5;;;11.3;;
56271;SDS011;42177;48.914;18.160;2024-03-02T20:35:57;13.5;;;11.3;;
56271;SDS011;42177;48.914;18.160;2024-03-02T20:40:57;12.6;;;11;;
56271;SDS011;42177;48.914;18.160;2024-03-02T20:45:57;12.6;;;11;;
56271;SDS011;42177;48.914;18.160;2024-03-02T20:50:57;11.3;;;9.8;;
56271;SDS011;42177;48.914;18.160;2024-03-02T20:55:57;11.3;;;9.8;;
56271;SDS011;42177;48.914;18.160;2024-03-02T21:00:57;10.4;;;9.3;;
56271;SDS011;42177;48.914;18.160;2024-03-02T21:05:57;10.4;;;9.3;;
56271;SDS011;42177;48.914;18.160;2024-03-02T21:10:57;9.3;;;8.3;;
56271;SDS011;42177;48.914;18.160;2024-03-02T21:15:57;9.3;;;8.3;;
56271;SDS011;42177;48.914;18.160;2024-03-02T21:20:57;9.3;;;8;;
56271;SDS011;42177;48.914;18.160;2024-03-02T21:25:57;9.3;;;8;;
56271;SDS011;42177;48.914;18.160;2024-03-02T21:30:57;9.7;;;7.7;;
56271;SDS011;42177;48.914;18.160;2024-03-02T21:35:57;9.7;;;7.7;;
56271;SDS011;42177;48.914;18.160;2024-03-02T21:40:57;8.6;;;7.1;;
56271;SDS011;42177;48.914;18.160;2024-03-02T21:45:57;8.6;;;7.1;;
56271;SDS011;42177;48.914;18.160;2024-03-02T21:50:57;7.9;;;6.6;;
56271;SDS011;42177;48.914;18.160;2024-03-02T21:55:57;7.9;;;6.6;;
56271;SDS011;42177;48.914;18.160;2024-03-02T22:00:57;9.7;;;7.3;;
56271;SDS011;42177;48.914;18.160;2024-03-02T22:05:57;9.7;;;7.3;;
56271;SDS011;42177;48.914;18.160;2024-03-02T22:10:57;7.6;;;6.8;;
56271;SDS011;42177;48.914;18.160;2024-03-02T22:15:57;7.6;;;6.8;;
56271;SDS011;42177;48.914;18.160;2024-03-02T22:20:57;7.5;;;6.5;;
56271;SDS011;42177;48.914;18.160;2024-03-02T22:25:58;7.5;;;6.5;;
56271;SDS011;42177;48.914;18.160;2024-03-02T22:30:57;9.9;;;8.1;;
56271;SDS011;42177;48.914;18.160;2024-03-02T22:35:57;9.9;;;8.1;;
56271;SDS011;42177;48.914;18.160;2024-03-02T22:40:57;9.5;;;8;;
56271;SDS011;42177;48.914;18.160;2024-03-02T22:45:57;9.5;;;8;;
56271;SDS011;42177;48.914;18.160;2024-03-02T22:50:57;9.3;;;8.3;;
56271;SDS011;42177;48.914;18.160;2024-03-02T22:55:57;9.3;;;8.3;;
56271;SDS011;42177;48.914;18.160;2024-03-02T23:00:57;11.3;;;8.8;;
56271;SDS011;42177;48.914;18.160;2024-03-02T23:05:57;11.3;;;8.8;;
56271;SDS011;42177;48.914;18.160;2024-03-02T23:10:57;9.5;;;8.5;;
56271;SDS011;42177;48.914;18.160;2024-03-02T23:15:57;9.5;;;8.5;;
56271;SDS011;42177;48.914;18.160;2024-03-02T23:20:57;10.4;;;8.3;;
56271;SDS011;42177;48.914;18.160;2024-03-02T23:25:57;10.4;;;8.3;;
56271;SDS011;42177;48.914;18.160;2024-03-02T23:30:57;9.5;;;8.3;;
56271;SDS011;42177;48.914;18.160;2024-03-02T23:35:57;9.5;;;8.3;;
56271;SDS011;42177;48.914;18.160;2024-03-02T23:40:57;10.2;;;8.7;;
56271;SDS011;42177;48.914;18.160;2024-03-02T23:45:57;10.2;;;8.7;;
56271;SDS011;42177;48.914;18.160;2024-03-02T23:50:57;11;;;9.2;;
56271;SDS011;42177;48.914;18.160;2024-03-02T23:55:58;11;;;9.2;;
